Time;durP1;ratioP1;P1;durP2;ratioP2;P2;SDS_P1;SDS_P2;PMS_P1;PMS_P2;Temp;Humidity;BMP_temperature;BMP_pressure;BME280_temperature;BME280_humidity;BME280_pressure;Samples;Min_cycle;Max_cycle;Signal;HPM_P1;HPM_P2
2023/10/01 00:00:20;;;;;;;1.20;1.10;;;;;;;9.19;100.00;96872.78;1023455;28;20019;-75
2023/10/01 00:00:52;;;;;;;2.50;1.70;;;;;;;9.19;100.00;96880.63;1022546;29;20330;-75
2023/10/01 00:01:22;;;;;;;0.43;0.28;;;;;;;9.25;100.00;96892.00;1019522;29;20263;-75
2023/10/01 00:01:53;;;;;;;0.80;0.80;;;;;;;9.24;100.00;96890.41;1022445;29;20382;-75
2023/10/01 00:02:25;;;;;;;6.38;1.27;;;;;;;9.26;100.00;96888.38;1022715;28;20023;-75
2023/10/01 00:02:56;;;;;;;1.17;1.17;;;;;;;9.25;100.00;96880.75;1027380;28;20051;-75
2023/10/01 00:03:27;;;;;;;2.35;2.15;;;;;;;9.25;100.00;96891.22;1018965;28;20276;-76
2023/10/01 00:03:58;;;;;;;2.20;2.00;;;;;;;9.18;100.00;96865.94;1018823;29;20315;-75
2023/10/01 00:04:31;;;;;;;1.88;0.50;;;;;;;9.27;100.00;96883.94;1021887;28;20023;-75
2023/10/01 00:05:02;;;;;;;1.98;1.88;;;;;;;9.22;100.00;96868.88;1022380;29;20568;-75
2023/10/01 00:05:32;;;;;;;0.57;0.57;;;;;;;9.25;100.00;96885.97;1022697;29;20298;-76
2023/10/01 00:06:04;;;;;;;0.25;0.25;;;;;;;9.19;100.00;96871.97;1022934;28;20020;-75
2023/10/01 00:06:35;;;;;;;2.05;0.90;;;;;;;9.17;100.00;96874.81;1018690;29;20028;-75
2023/10/01 00:07:06;;;;;;;2.92;1.45;;;;;;;9.19;100.00;96888.50;1015444;29;20662;-74
2023/10/01 00:07:40;;;;;;;0.93;0.93;;;;;;;9.17;100.00;96882.66;1022492;29;20251;-74
2023/10/01 00:08:12;;;;;;;2.08;1.02;;;;;;;9.16;100.00;96886.31;1022569;29;20019;-77
2023/10/01 00:08:42;;;;;;;2.33;1.50;;;;;;;9.09;100.00;96877.78;1027070;28;20265;-75
2023/10/01 00:09:19;;;;;;;1.02;1.02;;;;;;;9.15;100.00;96891.75;1026538;28;20301;-76
2023/10/01 00:09:49;;;;;;;1.40;1.27;;;;;;;9.14;100.00;96890.97;1029025;28;20557;-75
2023/10/01 00:10:20;;;;;;;1.55;1.33;;;;;;;9.12;100.00;96887.78;1030381;28;20261;-75
2023/10/01 00:10:51;;;;;;;6.15;1.50;;;;;;;9.12;100.00;96882.56;1031692;28;20490;-74
2023/10/01 00:11:21;;;;;;;2.03;1.20;;;;;;;9.07;100.00;96879.81;1034547;28;20014;-75
2023/10/01 00:11:52;;;;;;;0.40;0.40;;;;;;;9.12;100.00;96892.22;1030613;28;20041;-75
2023/10/01 00:12:23;;;;;;;0.82;0.52;;;;;;;9.11;100.00;96886.19;1030645;28;20718;-74
2023/10/01 00:12:58;;;;;;;1.77;1.67;;;;;;;9.10;100.00;96894.28;1026539;28;20034;-75
2023/10/01 00:13:28;;;;;;;1.38;1.27;;;;;;;9.09;100.00;96888.25;1027370;28;20309;-75
2023/10/01 00:14:08;;;;;;;6.03;3.17;;;;;;;9.10;100.00;96884.59;1031185;28;20307;-75
2023/10/01 00:14:39;;;;;;;2.67;1.88;;;;;;;9.10;100.00;96889.81;1021966;29;20045;-74
2023/10/01 00:15:14;;;;;;;0.10;0.10;;;;;;;9.13;100.00;96886.75;1022623;29;20031;-76
2023/10/01 00:15:44;;;;;;;2.53;2.33;;;;;;;9.16;100.00;96886.31;1016509;29;20478;-75
2023/10/01 00:16:15;;;;;;;0.65;0.65;;;;;;;9.16;100.00;96881.06;1023197;28;20279;-75
2023/10/01 00:16:45;;;;;;;0.77;0.75;;;;;;;9.09;100.00;96882.22;1026273;28;20019;-76
2023/10/01 00:17:16;;;;;;;1.23;1.23;;;;;;;9.11;100.00;96880.94;1023869;28;20016;-75
2023/10/01 00:17:48;;;;;;;0.30;0.30;;;;;;;9.09;100.00;96883.00;1026743;28;20744;-76
2023/10/01 00:18:19;;;;;;;0.22;0.22;;;;;;;9.07;100.00;96879.81;1022474;28;20015;-75
2023/10/01 00:18:49;;;;;;;1.20;1.17;;;;;;;9.08;100.00;96880.59;1022779;28;20267;-76
2023/10/01 00:19:20;;;;;;;0.90;0.90;;;;;;;9.05;100.00;96881.84;1023002;28;20031;-75
2023/10/01 00:19:50;;;;;;;1.95;1.33;;;;;;;9.05;100.00;96881.84;1022847;28;20047;-75
2023/10/01 00:20:25;;;;;;;4.15;2.35;;;;;;;9.01;100.00;96875.44;1026570;28;20015;-75
2023/10/01 00:20:56;;;;;;;1.00;0.93;;;;;;;9.09;100.00;96885.63;1018455;29;20051;-75
2023/10/01 00:21:29;;;;;;;0.00;0.00;;;;;;;9.05;100.00;96881.03;1017045;29;20268;-75
2023/10/01 00:22:00;;;;;;;1.25;1.20;;;;;;;9.05;100.00;96879.22;1018486;29;20042;-76
2023/10/01 00:22:33;;;;;;;2.45;1.30;;;;;;;9.04;100.00;96879.44;1019932;28;20278;-75
2023/10/01 00:23:04;;;;;;;0.75;0.75;;;;;;;9.08;100.00;96881.38;1023511;28;20512;-76
2023/10/01 00:23:34;;;;;;;8.40;2.00;;;;;;;9.01;100.00;96864.19;1024039;28;20267;-75
2023/10/01 00:24:05;;;;;;;0.90;0.82;;;;;;;9.06;100.00;96878.22;1018885;29;20359;-74
2023/10/01 00:24:36;;;;;;;0.60;0.52;;;;;;;9.06;100.00;96878.22;1022322;28;20099;-76
2023/10/01 00:25:07;;;;;;;0.70;0.70;;;;;;;9.08;100.00;96877.97;1018064;29;20291;-75
2023/10/01 00:25:38;;;;;;;0.10;0.10;;;;;;;9.09;100.00;96877.78;1019206;28;20008;-75
2023/10/01 00:26:10;;;;;;;0.20;0.20;;;;;;;9.10;100.00;96876.75;1022723;29;20306;-75
2023/10/01 00:26:40;;;;;;;3.90;2.38;;;;;;;9.10;100.00;96871.50;1019251;28;20766;-76
2023/10/01 00:27:11;;;;;;;3.03;0.90;;;;;;;9.05;100.00;96867.94;1030054;28;20274;-75
2023/10/01 00:27:41;;;;;;;1.25;1.23;;;;;;;9.05;100.00;96855.66;1030836;28;20034;-76
2023/10/01 00:28:12;;;;;;;3.30;0.60;;;;;;;9.11;100.00;96874.91;1030544;28;20498;-75
2023/10/01 00:28:43;;;;;;;2.53;1.50;;;;;;;9.07;100.00;96874.56;1026591;28;20034;-74
2023/10/01 00:29:13;;;;;;;1.45;1.35;;;;;;;9.05;100.00;96868.75;1022428;29;20028;-75
2023/10/01 00:29:44;;;;;;;1.08;0.75;;;;;;;9.05;100.00;96867.94;1022719;28;20038;-76
2023/10/01 00:30:15;;;;;;;1.60;1.50;;;;;;;9.05;100.00;96879.22;1026930;28;20030;-75
2023/10/01 00:30:47;;;;;;;1.27;1.17;;;;;;;9.04;100.00;96875.00;1022576;28;20037;-76
2023/10/01 00:31:18;;;;;;;2.60;1.35;;;;;;;9.03;100.00;96875.25;1022607;29;20031;-75
2023/10/01 00:31:49;;;;;;;0.65;0.57;;;;;;;9.03;100.00;96872.63;1018472;29;20610;-75
2023/10/01 00:32:21;;;;;;;1.13;1.08;;;;;;;9.03;100.00;96870.81;1022819;28;20294;-76
2023/10/01 00:32:52;;;;;;;1.00;1.00;;;;;;;9.01;100.00;96864.97;1022611;29;20271;-76
2023/10/01 00:33:22;;;;;;;1.40;1.30;;;;;;;9.08;100.00;96868.28;1018296;29;20857;-76
2023/10/01 00:33:53;;;;;;;1.52;1.10;;;;;;;8.99;100.00;96861.81;1018900;29;20028;-76
2023/10/01 00:34:23;;;;;;;0.70;0.70;;;;;;;9.05;100.00;96871.34;1018332;29;20019;-74
2023/10/01 00:34:58;;;;;;;1.80;1.70;;;;;;;9.02;100.00;96860.53;1018144;28;20095;-76
2023/10/01 00:35:29;;;;;;;1.15;1.15;;;;;;;9.01;100.00;96864.19;1026549;28;20763;-77
2023/10/01 00:36:00;;;;;;;0.40;0.40;;;;;;;9.02;100.00;96863.97;1027770;28;20851;-76
2023/10/01 00:36:32;;;;;;;0.95;0.95;;;;;;;8.98;100.00;96858.38;1026480;28;20246;-75
2023/10/01 00:37:02;;;;;;;0.45;0.45;;;;;;;8.98;100.00;96855.75;1019209;29;20015;-76
2023/10/01 00:37:33;;;;;;;0.30;0.30;;;;;;;8.98;100.00;96863.59;1018213;29;20260;-73
2023/10/01 00:38:05;;;;;;;1.05;1.02;;;;;;;8.97;100.00;96858.59;1023052;28;20106;-77
2023/10/01 00:38:36;;;;;;;2.08;1.75;;;;;;;8.97;100.00;96859.41;1022578;29;20251;-77
2023/10/01 00:39:06;;;;;;;1.33;0.95;;;;;;;8.97;100.00;96861.22;1019025;29;20263;-75
2023/10/01 00:39:37;;;;;;;0.70;0.70;;;;;;;8.96;100.00;96860.44;1018591;29;20028;-74
2023/10/01 00:40:11;;;;;;;3.15;1.70;;;;;;;8.92;100.00;96854.06;1022968;28;20031;-76
2023/10/01 00:40:44;;;;;;;0.73;0.73;;;;;;;8.97;100.00;96853.38;1027269;28;20442;-76
2023/10/01 00:41:15;;;;;;;1.33;1.23;;;;;;;8.95;100.00;96863.25;1027138;28;20262;-75
2023/10/01 00:41:45;;;;;;;0.17;0.17;;;;;;;8.93;100.00;96857.47;1026278;28;20254;-76
2023/10/01 00:42:16;;;;;;;3.35;2.00;;;;;;;8.97;100.00;96858.59;1026717;28;20035;-76
2023/10/01 00:42:46;;;;;;;0.90;0.65;;;;;;;8.98;100.00;96854.97;1024474;28;20019;-73
2023/10/01 00:43:20;;;;;;;1.10;1.02;;;;;;;8.96;100.00;96857.03;1017542;28;20537;-74
2023/10/01 00:43:51;;;;;;;1.75;0.70;;;;;;;8.95;100.00;96855.41;1018447;29;20444;-74
2023/10/01 00:44:22;;;;;;;0.77;0.77;;;;;;;8.92;100.00;96850.63;1020057;28;20267;-76
2023/10/01 00:44:53;;;;;;;0.70;0.70;;;;;;;8.98;100.00;96860.19;1022269;29;20266;-75
2023/10/01 00:45:23;;;;;;;1.10;1.10;;;;;;;8.97;100.00;96858.59;1019455;28;20028;-76
2023/10/01 00:45:54;;;;;;;5.47;2.28;;;;;;;8.95;100.00;96866.69;1026395;28;20266;-76
2023/10/01 00:46:24;;;;;;;0.22;0.22;;;;;;;8.90;100.00;96856.09;1026419;28;20018;-74
2023/10/01 00:46:55;;;;;;;4.00;1.35;;;;;;;8.97;100.00;96863.84;1030531;28;20031;-74
2023/10/01 00:47:26;;;;;;;3.28;2.20;;;;;;;8.93;100.00;96860.09;1034542;28;20621;-75
2023/10/01 00:47:56;;;;;;;7.68;2.45;;;;;;;8.94;100.00;96859.84;1026368;28;20070;-76
2023/10/01 00:48:27;;;;;;;2.75;2.55;;;;;;;9.01;100.00;96867.59;1022653;28;20258;-75
2023/10/01 00:49:00;;;;;;;2.05;1.45;;;;;;;8.96;100.00;96863.06;1018632;29;20655;-75
2023/10/01 00:49:31;;;;;;;0.20;0.20;;;;;;;9.00;100.00;96873.88;1022333;29;20023;-76
2023/10/01 00:50:01;;;;;;;0.38;0.38;;;;;;;9.02;100.00;96866.59;1018373;29;20260;-75
2023/10/01 00:50:32;;;;;;;0.80;0.77;;;;;;;8.99;100.00;96869.66;1018657;29;20031;-75
2023/10/01 00:51:04;;;;;;;0.57;0.57;;;;;;;8.98;100.00;96865.44;1019051;28;20028;-77
2023/10/01 00:51:34;;;;;;;2.75;1.60;;;;;;;8.92;100.00;96866.31;1015169;29;20028;-76
2023/10/01 00:52:10;;;;;;;2.05;1.95;;;;;;;8.97;100.00;96867.25;1022737;29;20267;-74
2023/10/01 00:52:41;;;;;;;2.55;0.50;;;;;;;8.91;100.00;96865.53;1019522;29;20032;-75
2023/10/01 00:53:11;;;;;;;1.75;1.65;;;;;;;8.97;100.00;96869.88;1025968;28;20286;-75
2023/10/01 00:53:42;;;;;;;0.55;0.43;;;;;;;8.92;100.00;96866.31;1022581;29;20279;-75
2023/10/01 00:54:12;;;;;;;2.25;1.00;;;;;;;8.97;100.00;96874.31;1018243;29;20417;-76
2023/10/01 00:54:44;;;;;;;0.45;0.45;;;;;;;8.97;100.00;96875.09;1017982;29;20030;-73
2023/10/01 00:55:15;;;;;;;1.25;1.20;;;;;;;8.94;100.00;96869.53;1022832;28;20042;-77
2023/10/01 00:55:48;;;;;;;1.27;1.25;;;;;;;8.94;100.00;96872.94;1022745;29;20952;-77
2023/10/01 00:56:20;;;;;;;0.60;0.60;;;;;;;8.90;100.00;96863.94;1022924;28;20362;-75
2023/10/01 00:56:50;;;;;;;2.03;1.52;;;;;;;9.00;100.00;96865.22;1027219;28;20254;-75
2023/10/01 00:57:21;;;;;;;0.95;0.85;;;;;;;8.92;100.00;96856.66;1027287;28;20267;-75
2023/10/01 00:57:53;;;;;;;0.82;0.82;;;;;;;9.01;100.00;96874.66;1023057;28;20019;-75
2023/10/01 00:58:24;;;;;;;2.08;0.57;;;;;;;9.01;100.00;96872.84;1015382;29;20024;-74
2023/10/01 00:58:54;;;;;;;1.75;1.35;;;;;;;8.94;100.00;96869.53;1019442;29;20267;-77
2023/10/01 00:59:25;;;;;;;0.55;0.55;;;;;;;8.96;100.00;96870.91;1023393;29;20772;-76
2023/10/01 00:59:55;;;;;;;4.57;1.23;;;;;;;8.94;100.00;96874.75;1018441;29;20020;-76
2023/10/01 01:00:26;;;;;;;0.73;0.73;;;;;;;8.89;100.00;96866.78;1019405;29;20035;-75
2023/10/01 01:00:56;;;;;;;0.82;0.82;;;;;;;8.94;100.00;96874.75;1015544;29;20024;-78
2023/10/01 01:01:27;;;;;;;1.45;1.38;;;;;;;8.92;100.00;96869.75;1019475;29;20016;-75
2023/10/01 01:01:57;;;;;;;1.60;1.50;;;;;;;8.90;100.00;96863.94;1019395;29;20078;-76
2023/10/01 01:02:30;;;;;;;1.63;1.33;;;;;;;8.89;100.00;96857.13;1027312;28;20018;-74
2023/10/01 01:03:06;;;;;;;2.67;1.48;;;;;;;8.90;100.00;96857.91;1023266;29;20019;-75
2023/10/01 01:03:36;;;;;;;1.67;1.20;;;;;;;8.88;100.00;96860.72;1023226;29;20835;-78
2023/10/01 01:04:10;;;;;;;0.80;0.80;;;;;;;8.94;100.00;96866.91;1023559;29;20255;-75
2023/10/01 01:04:44;;;;;;;0.75;0.68;;;;;;;8.93;100.00;96870.56;1023981;28;20134;-77
2023/10/01 01:05:23;;;;;;;0.63;0.63;;;;;;;8.91;100.00;96867.34;1019431;29;20618;-77
2023/10/01 01:06:36;;;;;;;1.38;0.73;;;;;;;8.90;100.00;96869.16;1013673;29;20262;-75
2023/10/01 01:07:14;;;;;;;1.75;1.10;;;;;;;8.93;100.00;96868.72;1015327;29;20339;-75
2023/10/01 01:07:47;;;;;;;0.30;0.20;;;;;;;8.91;100.00;96867.34;1025400;28;20263;-76
2023/10/01 01:08:21;;;;;;;0.45;0.45;;;;;;;8.95;100.00;96871.94;1028347;28;20309;-76
2023/10/01 01:08:54;;;;;;;2.72;1.73;;;;;;;8.93;100.00;96868.72;1033362;28;20257;-76
2023/10/01 01:09:25;;;;;;;1.23;1.23;;;;;;;8.92;100.00;96874.16;1030151;28;20348;-75
2023/10/01 01:09:55;;;;;;;1.08;0.98;;;;;;;8.94;100.00;96869.53;1020263;29;20251;-75
2023/10/01 01:10:26;;;;;;;0.90;0.90;;;;;;;8.94;100.00;96874.75;1023335;29;20023;-76
2023/10/01 01:10:57;;;;;;;1.70;1.60;;;;;;;8.98;100.00;96875.91;1023312;28;20026;-75
2023/10/01 01:11:27;;;;;;;3.03;1.20;;;;;;;8.98;100.00;96866.22;1019208;28;20020;-77
2023/10/01 01:11:58;;;;;;;3.97;2.30;;;;;;;8.97;100.00;96874.31;1019245;29;20318;-74
2023/10/01 01:12:29;;;;;;;0.52;0.52;;;;;;;8.93;100.00;96867.94;1019936;28;20024;-78
2023/10/01 01:13:00;;;;;;;0.98;0.98;;;;;;;8.92;100.00;96875.00;1027491;28;20098;-74
2023/10/01 01:13:30;;;;;;;0.90;0.90;;;;;;;8.94;100.00;96874.75;1027498;28;20659;-75
2023/10/01 01:14:01;;;;;;;1.42;1.23;;;;;;;8.91;100.00;96864.72;1031124;28;20010;-75
2023/10/01 01:14:33;;;;;;;2.17;1.40;;;;;;;8.95;100.00;96871.09;1022565;29;20016;-75
2023/10/01 01:15:12;;;;;;;1.25;1.23;;;;;;;8.97;100.00;96869.06;1023480;28;20090;-77
2023/10/01 01:15:45;;;;;;;2.42;2.05;;;;;;;9.02;100.00;96863.16;1027226;28;20262;-75
2023/10/01 01:16:19;;;;;;;1.75;1.65;;;;;;;9.01;100.00;96864.19;1029100;28;20794;-75
2023/10/01 01:16:51;;;;;;;4.53;1.98;;;;;;;9.00;100.00;96858.16;1029311;28;20262;-75
2023/10/01 01:17:22;;;;;;;1.45;1.35;;;;;;;9.04;100.00;96859.31;1023168;29;20815;-74
2023/10/01 01:17:53;;;;;;;5.78;1.38;;;;;;;9.09;100.00;96864.69;1019502;29;20303;-77
2023/10/01 01:18:26;;;;;;;0.22;0.22;;;;;;;8.97;100.00;96840.28;1018421;29;20032;-73
2023/10/01 01:18:56;;;;;;;8.30;2.45;;;;;;;9.12;100.00;96856.38;1016916;28;20803;-79
2023/10/01 01:19:29;;;;;;;0.93;0.88;;;;;;;9.09;100.00;96851.59;1023475;28;20343;-75
2023/10/01 01:20:00;;;;;;;1.30;1.20;;;;;;;9.20;100.00;96860.47;1019334;29;20032;-75
2023/10/01 01:20:36;;;;;;;1.33;1.27;;;;;;;9.16;100.00;96854.91;1023465;29;20271;-76
2023/10/01 01:21:10;;;;;;;4.78;2.08;;;;;;;9.16;100.00;96862.75;1024325;28;20018;-78
2023/10/01 01:21:44;;;;;;;2.50;2.28;;;;;;;9.13;100.00;96851.94;1023405;28;20323;-76
2023/10/01 01:22:28;;;;;;;2.00;1.27;;;;;;;9.11;100.00;96854.75;1019252;29;20314;-75
2023/10/01 01:22:58;;;;;;;1.05;0.88;;;;;;;9.17;100.00;96853.06;1023080;29;20676;-75
2023/10/01 01:23:30;;;;;;;2.92;1.98;;;;;;;9.13;100.00;96849.31;1022034;29;20266;-77
2023/10/01 01:24:03;;;;;;;1.73;1.63;;;;;;;9.19;100.00;96851.81;1015276;29;20396;-76
2023/10/01 01:24:36;;;;;;;3.30;1.88;;;;;;;9.21;100.00;96855.00;1019492;29;20267;-75
2023/10/01 01:25:19;;;;;;;1.90;1.77;;;;;;;9.28;100.00;96859.34;1020700;28;20263;-76
2023/10/01 01:25:52;;;;;;;0.73;0.73;;;;;;;9.32;100.00;96860.47;1029975;28;20297;-75
2023/10/01 01:26:22;;;;;;;1.30;1.20;;;;;;;9.27;100.00;96847.28;1023070;29;20877;-74
2023/10/01 01:26:53;;;;;;;2.08;1.95;;;;;;;9.32;100.00;96858.69;1022155;28;20278;-76
2023/10/01 01:27:23;;;;;;;0.60;0.60;;;;;;;9.28;100.00;96851.47;1019163;29;20028;-75
2023/10/01 01:27:57;;;;;;;1.65;1.27;;;;;;;9.36;100.00;96853.78;1015408;29;20115;-76
2023/10/01 01:28:30;;;;;;;1.55;0.95;;;;;;;9.36;100.00;96846.72;1019852;29;20145;-75
2023/10/01 01:29:16;;;;;;;1.27;1.08;;;;;;;9.41;100.00;96846.81;1019087;29;20259;-75
2023/10/01 01:29:50;;;;;;;0.75;0.75;;;;;;;9.47;100.00;96860.84;1018949;29;20290;-75
2023/10/01 01:30:26;;;;;;;0.88;0.85;;;;;;;9.43;100.00;96851.84;1018987;29;20275;-75
2023/10/01 01:30:58;;;;;;;1.73;1.63;;;;;;;9.49;100.00;96857.97;1019218;29;20416;-75
2023/10/01 01:31:29;;;;;;;2.28;1.15;;;;;;;9.49;100.00;96861.44;1016835;29;20260;-76
2023/10/01 01:32:15;;;;;;;0.85;0.85;;;;;;;9.52;100.00;96862.78;1022814;29;20979;-75
2023/10/01 01:32:53;;;;;;;1.02;0.93;;;;;;;9.44;100.00;96853.44;1023180;29;20049;-75
2023/10/01 01:33:31;;;;;;;1.45;0.75;;;;;;;9.46;100.00;96854.03;1018974;29;20274;-75
2023/10/01 01:34:05;;;;;;;2.03;1.92;;;;;;;9.43;100.00;96857.09;1027235;28;20258;-75
2023/10/01 01:34:36;;;;;;;2.25;2.10;;;;;;;9.44;100.00;96856.06;1022459;29;20764;-75
2023/10/01 01:35:09;;;;;;;6.35;1.30;;;;;;;9.42;100.00;96860.72;1027150;28;20247;-75
2023/10/01 01:35:42;;;;;;;0.30;0.30;;;;;;;9.37;100.00;96852.75;1031310;28;20014;-75
2023/10/01 01:36:13;;;;;;;1.63;1.40;;;;;;;9.37;100.00;96852.75;1025036;28;20269;-77
2023/10/01 01:36:45;;;;;;;3.00;1.75;;;;;;;9.35;100.00;96852.97;1031323;28;20875;-75
2023/10/01 01:38:07;;;;;;;1.60;1.00;;;;;;;9.31;100.00;96856.28;1026338;28;20852;-76
2023/10/01 01:39:12;;;;;;;8.68;2.45;;;;;;;9.26;100.00;96850.94;1027017;28;20273;-75
2023/10/01 01:39:48;;;;;;;0.80;0.80;;;;;;;9.25;100.00;96857.97;1018976;29;20267;-76
2023/10/01 01:40:27;;;;;;;2.25;1.30;;;;;;;9.24;100.00;96858.19;1023164;28;20267;-77
2023/10/01 01:41:00;;;;;;;4.40;1.35;;;;;;;9.21;100.00;96855.00;1027049;28;20671;-76
2023/10/01 01:41:32;;;;;;;1.27;1.17;;;;;;;9.18;100.00;96841.56;1018092;29;20260;-75
2023/10/01 01:42:03;;;;;;;0.65;0.65;;;;;;;9.18;100.00;96846.81;1018826;29;20271;-75
2023/10/01 01:42:33;;;;;;;0.95;0.95;;;;;;;9.19;100.00;96858.88;1023312;28;20798;-74
2023/10/01 01:43:15;;;;;;;0.82;0.82;;;;;;;9.12;100.00;96840.66;1021820;28;20086;-75
2023/10/01 01:43:49;;;;;;;0.75;0.75;;;;;;;9.15;100.00;96858.53;1024649;28;20362;-76
2023/10/01 01:44:20;;;;;;;4.75;1.25;;;;;;;9.14;100.00;96849.06;1019439;28;20276;-76
2023/10/01 01:45:43;;;;;;;0.28;0.28;;;;;;;9.16;100.00;96854.09;1027078;28;20090;-75
2023/10/01 01:46:14;;;;;;;2.63;2.25;;;;;;;9.19;100.00;96848.41;1030014;28;20270;-76
2023/10/01 01:46:59;;;;;;;0.85;0.85;;;;;;;9.26;100.00;96850.94;1030132;28;20250;-75
2023/10/01 01:47:30;;;;;;;1.30;1.20;;;;;;;9.25;100.00;96850.09;1031069;28;20061;-74
2023/10/01 01:48:00;;;;;;;0.50;0.35;;;;;;;9.19;100.00;96838.72;1034220;28;20630;-76
2023/10/01 01:48:33;;;;;;;1.55;1.30;;;;;;;9.20;100.00;96842.94;1033158;28;20014;-77
2023/10/01 01:49:04;;;;;;;7.28;2.42;;;;;;;9.21;100.00;96848.97;1027229;28;20026;-74
2023/10/01 01:49:34;;;;;;;1.45;1.35;;;;;;;9.23;100.00;96849.56;1022903;29;20282;-75
2023/10/01 01:50:19;;;;;;;1.00;0.90;;;;;;;9.24;100.00;96842.50;1023456;28;20023;-75
2023/10/01 01:50:49;;;;;;;0.75;0.75;;;;;;;9.24;100.00;96848.53;1031460;28;20095;-76
2023/10/01 01:51:20;;;;;;;1.55;1.45;;;;;;;9.22;100.00;96837.47;1032783;28;20873;-74
2023/10/01 01:51:57;;;;;;;3.75;1.77;;;;;;;9.29;100.00;96845.22;1031311;28;20684;-76
2023/10/01 01:52:27;;;;;;;6.70;1.33;;;;;;;9.27;100.00;96840.22;1023031;29;20278;-76
2023/10/01 01:52:58;;;;;;;1.63;1.38;;;;;;;9.28;100.00;96833.94;1014919;29;20268;-75
2023/10/01 01:53:41;;;;;;;0.68;0.68;;;;;;;9.34;100.00;96845.34;1019387;29;20031;-76
2023/10/01 01:54:11;;;;;;;1.00;0.88;;;;;;;9.34;100.00;96837.47;1025424;28;20027;-77
2023/10/01 01:54:43;;;;;;;0.52;0.52;;;;;;;9.38;100.00;96844.66;1018090;28;20283;-75
2023/10/01 01:55:27;;;;;;;0.93;0.85;;;;;;;9.39;100.00;96842.84;1017046;29;20024;-75
2023/10/01 01:55:59;;;;;;;2.13;1.88;;;;;;;9.36;100.00;96835.44;1020943;29;20259;-75
2023/10/01 01:56:39;;;;;;;1.15;0.80;;;;;;;9.37;100.00;96842.28;1023396;28;20275;-76
2023/10/01 01:57:13;;;;;;;1.40;1.30;;;;;;;9.39;100.00;96835.78;1030484;28;20364;-75
2023/10/01 01:57:56;;;;;;;0.70;0.70;;;;;;;9.47;100.00;96832.03;1026839;28;20026;-75
2023/10/01 01:58:29;;;;;;;2.20;1.98;;;;;;;9.52;100.00;96841.81;1026931;28;20266;-75
2023/10/01 01:59:01;;;;;;;1.70;1.60;;;;;;;9.51;100.00;96845.47;1026838;28;20273;-76
2023/10/01 01:59:31;;;;;;;3.50;0.95;;;;;;;9.52;100.00;96847.03;1029679;28;20349;-75
2023/10/01 02:00:11;;;;;;;4.47;3.95;;;;;;;9.52;100.00;96847.03;1033304;28;20265;-76
2023/10/01 02:01:01;;;;;;;1.55;0.98;;;;;;;9.53;100.00;96851.28;1030865;28;20502;-76
2023/10/01 02:01:33;;;;;;;1.48;1.38;;;;;;;9.51;100.00;96843.63;1027103;28;20407;-75
2023/10/01 02:02:05;;;;;;;1.13;1.02;;;;;;;9.50;100.00;96847.28;1026881;28;20183;-76
2023/10/01 02:02:35;;;;;;;1.60;1.50;;;;;;;9.51;100.00;96848.88;1023097;28;20759;-76
2023/10/01 02:03:17;;;;;;;1.83;1.73;;;;;;;9.50;100.00;96857.78;1022765;29;20261;-76
2023/10/01 02:03:51;;;;;;;2.13;1.92;;;;;;;9.51;100.00;96848.09;1022921;29;20026;-75
2023/10/01 02:04:22;;;;;;;3.20;2.35;;;;;;;9.50;100.00;96849.13;1024926;28;20262;-75
2023/10/01 02:04:58;;;;;;;1.40;1.30;;;;;;;9.43;100.00;96841.38;1023832;28;20347;-75
2023/10/01 02:05:29;;;;;;;1.50;1.40;;;;;;;9.45;100.00;96844.53;1019195;29;20319;-76
2023/10/01 02:06:00;;;;;;;1.52;1.30;;;;;;;9.48;100.00;96849.31;1018747;28;20268;-76
2023/10/01 02:06:31;;;;;;;0.85;0.85;;;;;;;9.50;100.00;96847.28;1030681;28;20145;-76
2023/10/01 02:07:01;;;;;;;0.45;0.45;;;;;;;9.45;100.00;96845.34;1034747;28;21107;-76
2023/10/01 02:07:33;;;;;;;0.90;0.90;;;;;;;9.49;100.00;96850.13;1034876;28;20017;-76
2023/10/01 02:08:06;;;;;;;2.05;1.95;;;;;;;9.49;100.00;96850.13;1030715;28;20057;-78
2023/10/01 02:08:49;;;;;;;1.98;1.88;;;;;;;9.38;100.00;96836.00;1030858;28;20611;-74
2023/10/01 02:09:20;;;;;;;3.15;2.65;;;;;;;9.43;100.00;96852.63;1024951;28;20257;-76
2023/10/01 02:09:51;;;;;;;0.60;0.52;;;;;;;9.43;100.00;96854.47;1015681;29;20879;-75
2023/10/01 02:10:21;;;;;;;5.85;2.05;;;;;;;9.42;100.00;96852.84;1018897;29;20051;-75
2023/10/01 02:10:56;;;;;;;2.78;1.15;;;;;;;9.39;100.00;96848.09;1019233;29;20820;-78
2023/10/01 02:11:26;;;;;;;1.30;1.20;;;;;;;9.33;100.00;96841.94;1017262;28;20012;-76
2023/10/01 02:11:57;;;;;;;0.85;0.80;;;;;;;9.37;100.00;96852.75;1026647;28;20269;-75
2023/10/01 02:12:30;;;;;;;1.67;1.55;;;;;;;9.37;100.00;96852.75;1026958;28;20100;-76
2023/10/01 02:13:04;;;;;;;0.63;0.60;;;;;;;9.34;100.00;96847.97;1022838;29;20019;-74
2023/10/01 02:13:40;;;;;;;3.50;1.83;;;;;;;9.32;100.00;96850.81;1022885;29;20259;-75
2023/10/01 02:14:29;;;;;;;2.05;1.17;;;;;;;9.30;100.00;96846.81;1018881;29;20297;-76
2023/10/01 02:15:03;;;;;;;2.63;2.38;;;;;;;9.24;100.00;96847.72;1027879;28;20298;-76
2023/10/01 02:15:35;;;;;;;1.00;0.88;;;;;;;9.23;100.00;96848.75;1026630;28;20671;-74
2023/10/01 02:17:13;;;;;;;0.70;0.70;;;;;;;9.25;100.00;96854.56;1011792;29;20817;-75
2023/10/01 02:17:43;;;;;;;0.85;0.85;;;;;;;9.26;100.00;96858.78;1021056;28;20268;-74
2023/10/01 02:18:17;;;;;;;1.73;1.63;;;;;;;9.28;100.00;96856.72;1019802;29;20831;-76
2023/10/01 02:18:56;;;;;;;1.25;1.17;;;;;;;9.28;100.00;96848.88;1025287;28;20035;-77
2023/10/01 02:19:26;;;;;;;0.60;0.60;;;;;;;9.35;100.00;96854.78;1026875;28;20261;-78
2023/10/01 02:19:58;;;;;;;3.40;2.90;;;;;;;9.34;100.00;96853.19;1025805;28;20262;-75
2023/10/01 02:20:33;;;;;;;4.65;1.38;;;;;;;9.36;100.00;96856.41;1022997;28;20436;-75
2023/10/01 02:21:16;;;;;;;0.82;0.82;;;;;;;9.33;100.00;96857.66;1019855;29;20263;-75
2023/10/01 02:21:49;;;;;;;1.15;1.05;;;;;;;9.37;100.00;96852.75;1025323;28;20338;-76
2023/10/01 02:22:20;;;;;;;0.57;0.47;;;;;;;9.32;100.00;96844.75;1029333;28;20572;-77
2023/10/01 02:22:51;;;;;;;0.32;0.32;;;;;;;9.35;100.00;96841.69;1025200;28;20263;-73
2023/10/01 02:23:33;;;;;;;1.17;1.08;;;;;;;9.40;100.00;96849.69;1022442;29;20095;-80
2023/10/01 02:24:04;;;;;;;1.42;1.25;;;;;;;9.42;100.00;96850.22;1023197;29;20031;-73
2023/10/01 02:24:44;;;;;;;1.95;1.30;;;;;;;9.42;100.00;96850.22;1020615;29;20765;-75
2023/10/01 02:25:16;;;;;;;1.30;1.30;;;;;;;9.44;100.00;96849.00;1025970;28;20052;-76
2023/10/01 02:25:47;;;;;;;1.40;1.30;;;;;;;9.45;100.00;96849.78;1027871;28;20026;-74
2023/10/01 02:26:18;;;;;;;1.65;1.27;;;;;;;9.43;100.00;96852.63;1028663;28;20310;-75
2023/10/01 02:26:53;;;;;;;1.88;0.95;;;;;;;9.43;100.00;96851.84;1031038;28;20666;-76
2023/10/01 02:27:26;;;;;;;1.00;1.00;;;;;;;9.40;100.00;96850.47;1028197;28;20388;-74
2023/10/01 02:28:12;;;;;;;1.70;0.90;;;;;;;9.42;100.00;96845.81;1031088;28;20335;-75
2023/10/01 02:28:43;;;;;;;0.55;0.55;;;;;;;9.49;100.00;96850.13;1031172;28;20742;-74
2023/10/01 02:29:13;;;;;;;5.90;2.38;;;;;;;9.51;100.00;96848.88;1029779;28;20270;-74
2023/10/01 02:30:33;;;;;;;0.77;0.60;;;;;;;9.47;100.00;96850.38;1031161;28;20046;-73
2023/10/01 02:31:08;;;;;;;5.38;2.72;;;;;;;9.48;100.00;96843.28;1029787;28;20262;-74
2023/10/01 02:31:51;;;;;;;1.08;1.08;;;;;;;9.49;100.00;96845.72;1030620;28;20138;-74
2023/10/01 02:32:24;;;;;;;0.22;0.22;;;;;;;9.52;100.00;96847.84;1031016;28;20266;-73
2023/10/01 02:34:08;;;;;;;1.08;0.82;;;;;;;9.53;100.00;96852.06;1027243;28;20038;-75
2023/10/01 02:34:36;;;;;;;0.70;0.70;;;;;;;9.48;100.00;96846.72;1031396;28;20269;-75
2023/10/01 02:35:34;;;;;;;0.60;0.60;;;;;;;9.48;100.00;96845.91;1031226;28;20035;-75
2023/10/01 02:35:58;;;;;;;1.52;1.42;;;;;;;9.47;100.00;96852.19;1026900;28;20277;-74
2023/10/01 02:36:30;;;;;;;1.42;1.33;;;;;;;9.43;100.00;96841.38;1019167;29;20071;-75
2023/10/01 02:37:07;;;;;;;1.40;1.20;;;;;;;9.45;100.00;96845.34;1019463;29;20127;-74
2023/10/01 02:37:42;;;;;;;2.00;1.77;;;;;;;9.44;100.00;96845.56;1020362;29;20278;-73
2023/10/01 02:39:28;;;;;;;0.45;0.45;;;;;;;9.43;100.00;96846.59;1022780;29;20270;-75
2023/10/01 02:40:12;;;;;;;2.60;1.63;;;;;;;9.42;100.00;96847.63;1016946;29;20275;-74
2023/10/01 02:40:44;;;;;;;1.95;1.02;;;;;;;9.39;100.00;96845.47;1019076;29;20286;-75
2023/10/01 02:41:15;;;;;;;0.65;0.65;;;;;;;9.33;100.00;96841.94;1015082;29;20304;-76
2023/10/01 02:42:09;;;;;;;1.40;1.30;;;;;;;9.34;100.00;96837.47;1016091;29;20276;-74
2023/10/01 02:42:38;;;;;;;0.45;0.45;;;;;;;9.39;100.00;96840.25;1018686;29;20042;-75